Time;durP1;ratioP1;P1;durP2;ratioP2;P2;SDS_P1;SDS_P2;PMS_P1;PMS_P2;Temp;Humidity;BMP_temperature;BMP_pressure;BME280_temperature;BME280_humidity;BME280_pressure;Samples;Min_cycle;Max_cycle;Signal;HPM_P1;HPM_P2
2022/06/16 00:01:47;;;;;;;3.97;2.20;;;17.60;89.40;;;;;;5040621;28;20041;-73
2022/06/16 00:04:14;;;;;;;7.60;2.95;;;17.60;90.00;;;;;;5035882;28;20069;-72
2022/06/16 00:06:42;;;;;;;4.32;2.50;;;17.60;89.30;;;;;;5036149;28;20703;-73
2022/06/16 00:09:09;;;;;;;4.18;2.42;;;17.60;89.30;;;;;;5035934;28;20053;-72
2022/06/16 00:11:36;;;;;;;3.88;2.30;;;17.60;89.30;;;;;;5037072;28;20065;-72
2022/06/16 00:14:03;;;;;;;3.95;2.67;;;17.60;90.00;;;;;;5023113;28;20060;-72
2022/06/16 00:16:30;;;;;;;6.55;2.22;;;17.50;90.00;;;;;;5034128;28;20651;-72
2022/06/16 00:18:59;;;;;;;4.18;2.55;;;17.40;90.40;;;;;;5037956;28;20041;-72
2022/06/16 00:21:26;;;;;;;5.00;2.55;;;17.50;90.60;;;;;;5037056;28;20048;-72
2022/06/16 00:23:53;;;;;;;4.72;2.60;;;17.50;90.70;;;;;;5021246;28;20052;-72
2022/06/16 00:26:24;;;;;;;6.75;2.72;;;17.40;90.70;;;;;;5033999;28;20041;-72
2022/06/16 00:28:52;;;;;;;4.60;2.67;;;17.30;90.90;;;;;;5040208;28;20054;-72
2022/06/16 00:31:22;;;;;;;5.35;2.50;;;17.40;91.00;;;;;;5037001;28;20071;-72
2022/06/16 00:33:50;;;;;;;6.00;2.33;;;17.40;90.80;;;;;;5038916;28;20431;-72
2022/06/16 00:36:17;;;;;;;4.75;3.20;;;17.30;90.80;;;;;;5021995;28;20043;-72
2022/06/16 00:38:44;;;;;;;4.22;2.30;;;17.30;91.20;;;;;;5035461;28;20072;-72
2022/06/16 00:41:12;;;;;;;4.93;2.38;;;17.30;91.20;;;;;;5037008;28;20029;-72
2022/06/16 00:43:40;;;;;;;4.50;2.35;;;17.30;91.50;;;;;;5036630;28;20042;-72
2022/06/16 00:46:20;;;;;;;5.30;2.28;;;17.30;91.60;;;;;;5021267;28;22106;-72
2022/06/16 00:48:52;;;;;;;4.25;2.60;;;17.30;91.50;;;;;;5035969;28;20059;-72
2022/06/16 00:51:37;;;;;;;4.70;2.72;;;17.20;91.50;;;;;;5024672;28;20563;-72
2022/06/16 00:54:17;;;;;;;4.75;1.83;;;17.20;91.70;;;;;;5035506;28;20507;-72
2022/06/16 00:56:46;;;;;;;4.88;2.40;;;17.10;91.70;;;;;;5037708;28;20071;-72
2022/06/16 00:59:13;;;;;;;5.18;2.25;;;17.10;92.00;;;;;;5040022;28;20037;-72
2022/06/16 01:01:43;;;;;;;5.85;3.13;;;17.10;92.10;;;;;;5036022;28;20059;-72
2022/06/16 01:07:01;;;;;;;6.38;2.67;;;17.10;92.80;;;;;;5035671;28;20045;-72
2022/06/16 01:09:36;;;;;;;8.43;2.63;;;17.10;92.80;;;;;;5032487;28;20064;-72
2022/06/16 01:15:22;;;;;;;5.47;2.35;;;17.00;93.40;;;;;;5038746;28;20044;-72
2022/06/16 01:18:13;;;;;;;4.03;2.75;;;16.90;93.30;;;;;;5032781;28;20113;-72
2022/06/16 01:20:45;;;;;;;3.92;2.70;;;16.90;93.50;;;;;;5034442;28;20045;-72
2022/06/16 01:23:24;;;;;;;9.23;3.20;;;16.90;93.90;;;;;;5036021;28;20120;-72
2022/06/16 01:26:00;;;;;;;4.47;2.60;;;16.80;93.90;;;;;;5020110;28;20177;-72
2022/06/16 01:29:01;;;;;;;7.15;2.90;;;16.80;93.90;;;;;;5032319;28;20052;-72
2022/06/16 01:31:42;;;;;;;6.30;2.70;;;16.80;93.80;;;;;;5038805;28;20053;-72
2022/06/16 01:34:28;;;;;;;5.53;2.38;;;16.80;93.80;;;;;;5033890;28;20053;-72
2022/06/16 01:37:01;;;;;;;7.43;2.95;;;16.80;93.50;;;;;;5033564;28;20519;-72
2022/06/16 01:39:43;;;;;;;5.63;2.50;;;16.80;93.50;;;;;;5038121;28;20055;-72
2022/06/16 01:42:14;;;;;;;4.32;2.40;;;16.80;93.40;;;;;;5036453;28;20052;-72
2022/06/16 01:44:55;;;;;;;9.60;3.42;;;16.70;93.70;;;;;;5035001;28;20042;-72
2022/06/16 01:47:27;;;;;;;6.45;2.75;;;16.70;94.20;;;;;;5021672;28;20084;-72
2022/06/16 01:49:59;;;;;;;5.18;2.53;;;16.70;94.00;;;;;;5038359;28;20559;-72
2022/06/16 01:52:41;;;;;;;6.05;2.92;;;16.60;94.30;;;;;;5022367;28;20077;-73
2022/06/16 01:55:15;;;;;;;4.95;3.05;;;16.60;94.40;;;;;;5016499;28;20095;-73
2022/06/16 01:58:17;;;;;;;4.30;2.63;;;16.60;94.50;;;;;;5038068;28;20518;-73
2022/06/16 02:00:50;;;;;;;5.53;2.70;;;16.50;94.70;;;;;;5035432;28;20056;-73
2022/06/16 02:03:30;;;;;;;3.35;2.47;;;16.50;94.70;;;;;;5031208;28;20049;-72
2022/06/16 02:06:14;;;;;;;7.93;3.05;;;16.50;94.70;;;;;;5023497;28;20526;-72
2022/06/16 02:08:47;;;;;;;8.90;2.90;;;16.50;95.00;;;;;;5035027;28;20041;-73
2022/06/16 02:11:20;;;;;;;5.72;3.10;;;16.50;95.30;;;;;;5040213;28;20049;-72
2022/06/16 02:14:12;;;;;;;5.88;3.15;;;16.50;94.90;;;;;;5038787;28;20097;-73
2022/06/16 02:16:42;;;;;;;5.45;2.80;;;16.40;94.40;;;;;;5037000;28;20475;-72
2022/06/16 02:19:14;;;;;;;5.63;2.80;;;16.30;94.40;;;;;;5041452;28;20053;-72
2022/06/16 02:21:45;;;;;;;5.03;3.22;;;16.30;94.60;;;;;;5036964;28;20057;-73
2022/06/16 02:24:16;;;;;;;4.22;2.70;;;16.30;94.60;;;;;;5025927;28;20055;-72
2022/06/16 02:26:45;;;;;;;4.57;2.88;;;16.30;95.00;;;;;;5040664;28;20148;-72
2022/06/16 02:29:39;;;;;;;4.00;2.60;;;16.20;95.00;;;;;;5036872;28;20045;-73
2022/06/16 02:32:37;;;;;;;6.45;2.85;;;16.20;94.90;;;;;;5036826;28;20508;-72
2022/06/16 02:35:30;;;;;;;4.68;2.90;;;16.20;94.30;;;;;;5041105;28;20044;-72
2022/06/16 02:38:39;;;;;;;6.68;3.42;;;16.30;94.70;;;;;;5037123;28;20053;-72
2022/06/16 02:41:19;;;;;;;5.50;2.70;;;16.20;94.80;;;;;;5039576;28;20041;-72
2022/06/16 02:43:46;;;;;;;5.75;3.72;;;16.20;95.00;;;;;;5038557;28;20194;-72
2022/06/16 02:46:25;;;;;;;8.68;3.60;;;16.10;94.70;;;;;;5023617;28;20048;-72
2022/06/16 02:49:17;;;;;;;5.38;3.38;;;16.10;94.70;;;;;;5042134;28;20049;-72
2022/06/16 02:52:04;;;;;;;7.60;3.67;;;16.10;94.70;;;;;;5032148;28;20042;-72
2022/06/16 02:54:40;;;;;;;9.13;3.28;;;16.10;94.90;;;;;;5040332;28;20049;-72
2022/06/16 02:57:22;;;;;;;7.07;3.75;;;16.10;94.60;;;;;;5035074;28;20322;-72
2022/06/16 02:59:57;;;;;;;6.60;2.80;;;16.10;95.10;;;;;;5025761;28;20564;-73
2022/06/16 03:02:27;;;;;;;5.63;3.20;;;16.00;95.10;;;;;;5039789;28;20441;-73
2022/06/16 03:04:56;;;;;;;5.15;3.70;;;16.00;94.60;;;;;;5036441;28;20046;-73
2022/06/16 03:07:25;;;;;;;4.43;3.50;;;16.00;94.60;;;;;;5041951;28;20416;-72
2022/06/16 03:10:10;;;;;;;6.25;4.03;;;16.00;94.50;;;;;;5026865;28;20041;-72
2022/06/16 03:12:38;;;;;;;5.23;3.33;;;16.00;94.70;;;;;;5023475;28;20139;-73
2022/06/16 03:15:10;;;;;;;7.25;4.18;;;16.00;95.40;;;;;;5038320;28;20049;-73
2022/06/16 03:17:37;;;;;;;4.82;3.35;;;16.00;95.30;;;;;;5034959;28;20045;-73
2022/06/16 03:20:04;;;;;;;5.20;3.67;;;16.00;95.10;;;;;;5037252;28;20971;-73
2022/06/16 03:22:31;;;;;;;6.65;4.15;;;16.00;95.50;;;;;;5039192;28;20091;-72
2022/06/16 03:24:59;;;;;;;6.07;3.42;;;16.10;95.70;;;;;;5025381;28;20042;-72
2022/06/16 03:27:26;;;;;;;4.95;3.53;;;16.10;95.60;;;;;;5041276;28;20037;-72
2022/06/16 03:29:55;;;;;;;6.75;3.70;;;16.10;95.80;;;;;;5039299;28;20065;-72
2022/06/16 03:32:22;;;;;;;6.18;3.72;;;16.10;95.20;;;;;;5035170;28;20042;-72
2022/06/16 03:34:51;;;;;;;7.75;3.60;;;16.10;95.50;;;;;;5024462;28;20120;-72
2022/06/16 03:37:19;;;;;;;6.15;4.10;;;16.10;95.40;;;;;;5024269;28;20037;-72
2022/06/16 03:39:53;;;;;;;9.93;4.03;;;16.10;95.20;;;;;;5024287;28;20053;-72
2022/06/16 03:42:20;;;;;;;6.38;4.22;;;16.20;94.90;;;;;;5038814;28;20111;-72
2022/06/16 03:44:50;;;;;;;7.43;3.90;;;16.20;95.20;;;;;;5019661;28;21026;-73
2022/06/16 03:47:18;;;;;;;7.97;4.30;;;16.20;95.70;;;;;;5040833;28;20428;-72
2022/06/16 03:49:45;;;;;;;11.50;4.80;;;16.20;95.30;;;;;;5018747;28;20492;-72
2022/06/16 03:52:13;;;;;;;8.57;4.85;;;16.30;95.00;;;;;;5039774;28;20041;-72
2022/06/16 03:54:47;;;;;;;9.20;4.18;;;16.40;95.00;;;;;;5035461;28;20044;-73
2022/06/16 03:57:14;;;;;;;7.80;4.18;;;16.40;95.30;;;;;;5033770;28;20040;-73
2022/06/16 03:59:41;;;;;;;7.40;4.15;;;16.50;94.40;;;;;;5022618;28;20045;-72
2022/06/16 04:02:17;;;;;;;8.35;5.43;;;16.50;93.80;;;;;;5020199;28;20715;-72
2022/06/16 04:04:46;;;;;;;12.82;4.88;;;16.50;94.10;;;;;;5035068;28;20126;-73
2022/06/16 04:07:15;;;;;;;12.25;4.40;;;16.50;94.10;;;;;;5036475;28;20045;-73
2022/06/16 04:09:55;;;;;;;7.72;4.38;;;16.60;93.30;;;;;;5015820;28;20048;-73
2022/06/16 04:12:22;;;;;;;6.70;3.88;;;16.70;92.70;;;;;;5037337;28;20037;-72
2022/06/16 04:14:49;;;;;;;8.32;4.07;;;16.80;92.50;;;;;;5039297;28;20080;-73
2022/06/16 04:17:18;;;;;;;7.30;3.83;;;16.90;92.30;;;;;;5036167;28;20053;-73
2022/06/16 04:22:42;;;;;;;4.50;4.07;;;17.10;91.70;;;;;;5037542;28;20061;-73
2022/06/16 04:25:18;;;;;;;10.85;4.32;;;17.20;92.60;;;;;;5022694;28;20050;-73
2022/06/16 04:27:46;;;;;;;8.95;4.75;;;17.20;90.80;;;;;;5024911;28;20081;-73
2022/06/16 04:30:16;;;;;;;7.97;3.85;;;17.40;90.90;;;;;;5048861;28;20496;-73
2022/06/16 04:32:44;;;;;;;7.65;4.30;;;17.50;90.70;;;;;;5039002;28;20045;-73
2022/06/16 04:35:12;;;;;;;6.45;3.80;;;17.50;89.80;;;;;;5049310;28;20041;-73
2022/06/16 04:38:08;;;;;;;8.13;3.67;;;17.60;90.10;;;;;;5047548;28;20057;-73
2022/06/16 04:40:38;;;;;;;6.07;3.75;;;17.80;89.70;;;;;;5037873;28;20118;-73
2022/06/16 04:43:09;;;;;;;5.95;3.45;;;17.90;89.10;;;;;;5037926;28;20049;-73
2022/06/16 04:45:37;;;;;;;6.10;3.70;;;18.00;89.10;;;;;;5035343;28;20049;-73
2022/06/16 04:48:06;;;;;;;8.77;3.60;;;18.00;87.20;;;;;;5038706;28;20029;-73
2022/06/16 04:50:35;;;;;;;4.55;4.03;;;18.10;88.30;;;;;;5036632;28;20083;-73
2022/06/16 04:53:05;;;;;;;4.40;3.33;;;18.20;86.20;;;;;;5038273;28;20045;-73
2022/06/16 04:55:41;;;;;;;6.43;3.72;;;18.20;85.60;;;;;;5022569;28;20140;-73
2022/06/16 04:58:33;;;;;;;14.73;4.65;;;18.30;86.60;;;;;;5026387;28;20041;-73
2022/06/16 05:01:07;;;;;;;7.25;4.05;;;18.40;86.00;;;;;;5024648;28;20174;-73
2022/06/16 05:04:07;;;;;;;10.38;5.82;;;18.50;84.80;;;;;;5000367;28;20061;-73
2022/06/16 05:07:14;;;;;;;13.57;6.63;;;18.70;83.90;;;;;;5018829;28;20131;-73
2022/06/16 05:10:08;;;;;;;12.65;7.43;;;18.80;83.00;;;;;;4990782;28;20480;-73
2022/06/16 05:12:46;;;;;;;12.13;7.15;;;19.10;82.30;;;;;;5002255;28;20195;-73
2022/06/16 05:15:37;;;;;;;10.73;6.25;;;19.30;81.80;;;;;;5018826;28;20049;-73
2022/06/16 05:18:37;;;;;;;14.15;6.60;;;19.40;81.50;;;;;;5010558;28;20057;-73
2022/06/16 05:21:16;;;;;;;7.25;5.00;;;19.50;79.60;;;;;;4994048;28;22371;-73
2022/06/16 05:23:43;;;;;;;9.15;5.35;;;19.70;78.40;;;;;;5001721;28;20059;-73
2022/06/16 05:26:32;;;;;;;8.55;5.07;;;19.80;77.60;;;;;;4999788;28;20530;-73
2022/06/16 05:29:11;;;;;;;9.00;4.22;;;20.00;79.80;;;;;;4996389;28;20081;-73
2022/06/16 05:31:56;;;;;;;6.47;4.30;;;20.20;79.30;;;;;;4999770;28;20296;-73
2022/06/16 05:34:55;;;;;;;6.15;3.80;;;20.30;76.20;;;;;;5001878;28;20148;-73
2022/06/16 05:37:57;;;;;;;9.05;3.20;;;20.50;79.80;;;;;;5008705;28;20787;-74
2022/06/16 05:41:08;;;;;;;6.07;3.40;;;20.60;75.20;;;;;;4955800;28;20053;-73
2022/06/16 05:43:56;;;;;;;7.22;3.22;;;20.80;77.10;;;;;;5001636;28;20063;-73
2022/06/16 05:46:53;;;;;;;9.55;3.25;;;21.00;75.70;;;;;;5032603;28;20044;-73
2022/06/16 05:49:25;;;;;;;7.28;3.20;;;21.10;74.60;;;;;;4998799;28;20192;-74
2022/06/16 05:51:56;;;;;;;6.10;2.75;;;21.20;75.30;;;;;;5016122;28;20057;-73
2022/06/16 05:54:28;;;;;;;7.13;3.03;;;21.30;74.60;;;;;;4984552;28;20049;-73
2022/06/16 05:56:55;;;;;;;5.82;3.30;;;21.40;75.80;;;;;;5001750;28;20044;-73
2022/06/16 05:59:23;;;;;;;6.00;3.05;;;21.60;74.60;;;;;;4997121;28;20056;-73
2022/06/16 06:01:51;;;;;;;7.32;2.70;;;21.60;74.80;;;;;;4980960;28;20065;-73
2022/06/16 06:04:18;;;;;;;8.05;4.38;;;21.80;73.80;;;;;;4998486;28;22401;-74
2022/06/16 06:06:50;;;;;;;6.57;3.70;;;22.00;75.00;;;;;;4981715;28;20057;-74
2022/06/16 06:17:45;;;;;;;6.55;3.25;;;22.50;73.30;;;;;;5003166;28;20724;-74
2022/06/16 06:20:12;;;;;;;5.32;3.72;;;22.60;73.60;;;;;;4998816;28;20071;-73
2022/06/16 06:22:43;;;;;;;6.93;3.50;;;22.70;72.10;;;;;;5006469;28;20080;-74
2022/06/16 06:25:14;;;;;;;7.25;3.47;;;22.90;73.60;;;;;;4989432;28;20088;-74
2022/06/16 06:27:45;;;;;;;6.18;2.70;;;23.00;72.00;;;;;;4991939;28;20394;-74
2022/06/16 06:30:24;;;;;;;4.63;2.92;;;23.30;71.90;;;;;;4999930;28;20131;-74
2022/06/16 06:32:52;;;;;;;4.40;2.80;;;23.40;70.80;;;;;;4996929;28;20053;-74
2022/06/16 06:35:20;;;;;;;4.55;2.55;;;23.30;71.00;;;;;;4979382;28;20537;-74
2022/06/16 06:37:47;;;;;;;6.07;2.40;;;23.60;70.80;;;;;;4999674;28;20045;-74
2022/06/16 06:40:22;;;;;;;4.82;2.28;;;23.70;70.70;;;;;;5000004;28;20050;-74
2022/06/16 06:42:49;;;;;;;6.43;2.30;;;23.80;70.00;;;;;;4994600;28;22508;-72
2022/06/16 06:45:17;;;;;;;4.95;1.80;;;23.90;69.80;;;;;;4995501;28;20050;-72
2022/06/16 06:47:45;;;;;;;5.47;1.70;;;24.00;68.80;;;;;;4984097;28;20061;-74
2022/06/16 06:50:23;;;;;;;5.30;1.80;;;23.90;66.30;;;;;;4999442;28;22366;-72
2022/06/16 06:52:52;;;;;;;3.30;1.98;;;24.10;68.00;;;;;;5007790;28;20052;-72
2022/06/16 06:55:20;;;;;;;4.63;2.08;;;24.20;69.40;;;;;;4996597;28;20049;-74
2022/06/16 06:57:49;;;;;;;5.57;1.70;;;24.30;67.50;;;;;;4999223;28;20835;-74
2022/06/16 07:00:20;;;;;;;3.97;1.80;;;24.40;67.90;;;;;;5002118;28;20077;-74
2022/06/16 07:02:47;;;;;;;3.92;1.95;;;24.50;66.90;;;;;;5003412;28;20181;-74
2022/06/16 07:05:14;;;;;;;2.80;1.60;;;24.50;66.10;;;;;;4996059;28;20135;-74
2022/06/16 07:07:46;;;;;;;5.50;1.63;;;24.70;67.70;;;;;;5002622;28;20190;-74
2022/06/16 07:10:15;;;;;;;2.72;1.45;;;24.60;66.70;;;;;;5002167;28;20041;-74
2022/06/16 07:12:42;;;;;;;6.15;1.40;;;24.50;65.60;;;;;;5001789;28;20065;-74
2022/06/16 07:15:10;;;;;;;3.20;1.20;;;24.60;67.50;;;;;;5001365;28;20044;-74
2022/06/16 07:17:38;;;;;;;6.10;1.30;;;24.70;66.10;;;;;;5001401;28;20747;-73
2022/06/16 07:20:05;;;;;;;5.50;1.83;;;24.80;69.10;;;;;;4999084;28;20054;-74
2022/06/16 07:22:32;;;;;;;4.50;1.33;;;25.00;65.60;;;;;;5000128;28;20041;-75
2022/06/16 07:24:59;;;;;;;6.38;2.25;;;25.20;65.50;;;;;;4999987;28;22636;-74
2022/06/16 07:27:27;;;;;;;2.67;1.77;;;25.20;65.80;;;;;;4990330;28;20041;-74
2022/06/16 07:29:55;;;;;;;3.17;1.20;;;25.30;66.10;;;;;;4993711;28;20053;-74
2022/06/16 07:32:23;;;;;;;6.18;1.20;;;25.40;64.10;;;;;;4997660;28;20214;-74
2022/06/16 07:34:50;;;;;;;3.78;1.42;;;25.40;65.80;;;;;;5001707;28;20516;-72
2022/06/16 07:37:18;;;;;;;5.15;1.80;;;25.50;64.60;;;;;;4999421;28;20251;-74
2022/06/16 07:39:45;;;;;;;5.78;1.30;;;25.50;60.90;;;;;;4998652;28;20053;-74
2022/06/16 07:42:12;;;;;;;7.05;1.58;;;25.50;59.80;;;;;;4997930;28;20046;-75
2022/06/16 07:44:40;;;;;;;6.50;1.45;;;25.50;61.70;;;;;;4995061;28;20061;-74
2022/06/16 07:47:07;;;;;;;3.40;1.33;;;25.60;64.20;;;;;;5000122;28;20045;-74
2022/06/16 07:49:35;;;;;;;2.80;1.17;;;25.80;61.70;;;;;;5002793;28;22480;-74
2022/06/16 07:52:03;;;;;;;3.08;1.30;;;25.50;59.30;;;;;;5011734;28;20131;-74
2022/06/16 07:54:30;;;;;;;3.25;1.23;;;25.60;62.30;;;;;;5010048;28;22485;-74
2022/06/16 07:57:19;;;;;;;2.03;0.73;;;25.70;62.90;;;;;;4997251;28;20049;-74
2022/06/16 07:59:56;;;;;;;4.25;1.50;;;25.60;57.20;;;;;;4995102;28;20052;-74
2022/06/16 08:02:24;;;;;;;3.05;0.93;;;25.70;58.60;;;;;;4998292;28;20052;-74
2022/06/16 08:04:52;;;;;;;3.97;0.88;;;25.90;59.60;;;;;;4995364;28;20508;-73
2022/06/16 08:07:19;;;;;;;2.90;1.10;;;25.80;54.00;;;;;;4979847;28;20056;-74
2022/06/16 08:09:48;;;;;;;2.25;0.77;;;26.10;57.70;;;;;;4997486;28;20163;-74
2022/06/16 08:12:15;;;;;;;2.00;0.82;;;26.30;55.60;;;;;;4999008;28;20051;-74
2022/06/16 08:14:46;;;;;;;1.42;0.70;;;26.30;51.70;;;;;;4982623;28;20046;-71
2022/06/16 08:17:27;;;;;;;2.95;0.75;;;26.30;52.10;;;;;;4999677;28;20420;-72
2022/06/16 08:19:55;;;;;;;4.20;0.60;;;26.20;51.80;;;;;;4998341;28;22646;-72
2022/06/16 08:22:23;;;;;;;2.22;0.80;;;26.30;52.70;;;;;;4996475;28;20052;-72
2022/06/16 08:24:51;;;;;;;1.52;0.60;;;26.40;53.00;;;;;;4995304;28;22686;-72
2022/06/16 08:27:23;;;;;;;2.28;0.65;;;26.20;52.30;;;;;;4998219;28;20060;-73
2022/06/16 08:29:51;;;;;;;1.98;0.52;;;26.30;51.90;;;;;;4996305;28;20052;-72
2022/06/16 08:32:20;;;;;;;3.30;0.60;;;26.40;50.70;;;;;;4981735;28;20053;-72
2022/06/16 08:34:48;;;;;;;2.30;0.63;;;26.60;50.00;;;;;;4994652;28;20037;-73
2022/06/16 08:37:16;;;;;;;2.63;0.52;;;26.60;49.30;;;;;;4995230;28;20396;-73
2022/06/16 08:39:43;;;;;;;3.28;0.68;;;26.70;48.80;;;;;;5012906;28;20053;-72
2022/06/16 08:42:35;;;;;;;4.05;0.75;;;26.70;48.80;;;;;;5006292;28;20064;-72
2022/06/16 08:45:26;;;;;;;1.03;0.63;;;26.60;50.60;;;;;;4998528;28;20133;-71
2022/06/16 08:48:13;;;;;;;3.15;0.52;;;26.70;50.80;;;;;;4995773;28;20045;-72
2022/06/16 08:51:06;;;;;;;2.63;0.55;;;26.80;50.00;;;;;;4989836;28;20115;-72
2022/06/16 08:53:59;;;;;;;2.15;0.40;;;26.70;49.10;;;;;;4995033;28;20052;-73
2022/06/16 08:56:57;;;;;;;2.67;0.57;;;26.70;48.90;;;;;;4983468;28;20080;-71
2022/06/16 08:59:39;;;;;;;5.15;0.70;;;26.80;50.70;;;;;;4992357;28;20049;-72
2022/06/16 09:02:13;;;;;;;1.27;0.52;;;26.80;49.30;;;;;;5001402;28;20060;-72
2022/06/16 09:04:57;;;;;;;2.13;0.73;;;26.60;51.90;;;;;;5001401;28;20056;-73
2022/06/16 09:07:52;;;;;;;3.28;0.63;;;26.40;48.60;;;;;;4973798;28;20061;-71
2022/06/16 09:10:33;;;;;;;3.33;0.60;;;26.60;48.20;;;;;;4988917;28;20052;-72
2022/06/16 09:13:15;;;;;;;3.13;0.60;;;26.60;47.90;;;;;;5003572;28;20057;-72
2022/06/16 09:15:47;;;;;;;3.15;0.70;;;26.50;49.20;;;;;;4988036;28;20049;-73
2022/06/16 09:19:06;;;;;;;3.55;0.70;;;26.60;49.80;;;;;;4995848;28;20140;-72
2022/06/16 09:21:43;;;;;;;3.33;0.95;;;26.70;51.10;;;;;;4987390;28;20179;-72
2022/06/16 09:24:10;;;;;;;1.88;0.50;;;26.90;48.60;;;;;;5001197;28;20053;-72
2022/06/16 09:26:39;;;;;;;2.28;0.50;;;26.90;49.60;;;;;;5010127;28;20546;-73
2022/06/16 09:29:23;;;;;;;2.92;0.60;;;26.90;48.30;;;;;;4990978;28;21409;-72
2022/06/16 09:32:08;;;;;;;4.15;0.90;;;26.90;49.40;;;;;;4995465;28;20049;-73
2022/06/16 09:34:49;;;;;;;1.73;0.70;;;26.90;49.30;;;;;;4990556;28;20172;-71
2022/06/16 09:37:24;;;;;;;2.80;0.60;;;27.00;50.30;;;;;;4990887;28;20052;-72
2022/06/16 09:40:06;;;;;;;2.08;0.75;;;27.00;50.00;;;;;;4991364;28;20041;-73
2022/06/16 09:42:46;;;;;;;13.73;0.70;;;26.90;51.70;;;;;;4994741;28;20149;-73
2022/06/16 09:45:31;;;;;;;2.53;0.82;;;26.80;49.30;;;;;;4996797;28;20057;-72
2022/06/16 09:48:11;;;;;;;5.00;0.65;;;27.00;51.90;;;;;;4993386;28;20123;-73
2022/06/16 09:51:07;;;;;;;2.70;0.60;;;27.10;50.20;;;;;;4990119;28;20068;-72
2022/06/16 09:53:34;;;;;;;2.60;0.60;;;27.00;50.00;;;;;;4995686;28;21093;-72
2022/06/16 09:56:23;;;;;;;1.90;0.60;;;27.00;49.80;;;;;;4995561;28;20057;-73
2022/06/16 09:58:55;;;;;;;3.85;0.82;;;26.90;48.40;;;;;;4976527;28;20056;-73
2022/06/16 10:01:25;;;;;;;3.72;0.65;;;27.00;50.30;;;;;;4995760;28;22621;-73
2022/06/16 10:04:05;;;;;;;1.75;0.55;;;27.00;49.20;;;;;;4995938;28;20641;-74
2022/06/16 10:06:48;;;;;;;3.13;0.50;;;26.80;49.00;;;;;;4988093;28;20081;-74
2022/06/16 10:09:29;;;;;;;3.95;0.88;;;26.80;50.60;;;;;;4992425;28;20053;-74
2022/06/16 10:12:11;;;;;;;4.38;0.60;;;26.90;49.80;;;;;;4994737;28;20052;-73
2022/06/16 10:14:59;;;;;;;5.00;1.58;;;27.00;49.10;;;;;;4988531;28;20053;-72
2022/06/16 10:17:28;;;;;;;5.43;0.60;;;27.00;48.90;;;;;;4988657;28;20993;-72
2022/06/16 10:19:58;;;;;;;2.90;0.60;;;27.00;48.40;;;;;;4989215;28;20215;-73
2022/06/16 10:22:28;;;;;;;2.95;0.80;;;26.90;48.00;;;;;;4988905;28;20060;-73
2022/06/16 10:25:16;;;;;;;4.15;0.57;;;26.90;47.90;;;;;;4991926;28;20800;-72
2022/06/16 10:27:51;;;;;;;2.33;0.45;;;26.70;47.10;;;;;;4993832;28;20045;-73
2022/06/16 10:30:32;;;;;;;4.15;0.60;;;26.70;49.00;;;;;;4981268;28;20736;-73
2022/06/16 10:33:10;;;;;;;2.50;0.50;;;26.80;48.10;;;;;;5000423;28;20056;-74
2022/06/16 10:35:38;;;;;;;3.25;0.60;;;26.80;47.20;;;;;;4994456;28;20844;-71
2022/06/16 10:38:10;;;;;;;5.20;0.70;;;26.80;47.70;;;;;;4990949;28;21511;-72
2022/06/16 10:40:40;;;;;;;4.78;0.50;;;26.70;46.60;;;;;;4995368;28;20536;-72
2022/06/16 10:43:34;;;;;;;4.05;0.65;;;26.90;48.60;;;;;;4990788;28;20096;-74
2022/06/16 10:46:20;;;;;;;2.00;0.60;;;27.00;49.50;;;;;;4993799;28;20159;-71
2022/06/16 10:48:55;;;;;;;2.45;0.63;;;27.10;48.60;;;;;;4996355;28;20058;-71
2022/06/16 10:51:26;;;;;;;1.60;0.50;;;27.00;47.80;;;;;;4986857;28;20504;-72
2022/06/16 10:54:19;;;;;;;2.28;0.52;;;27.10;47.80;;;;;;4996617;28;20145;-72
2022/06/16 10:56:47;;;;;;;1.25;0.60;;;26.70;46.20;;;;;;4977249;28;20045;-75
2022/06/16 10:59:24;;;;;;;3.00;0.50;;;26.50;45.70;;;;;;4992265;28;20049;-72
2022/06/16 11:02:14;;;;;;;1.08;0.40;;;26.60;46.70;;;;;;4982187;28;20092;-75
2022/06/16 11:04:43;;;;;;;2.30;0.45;;;26.80;47.80;;;;;;4993879;28;20053;-74
2022/06/16 11:07:20;;;;;;;1.63;0.50;;;26.90;49.10;;;;;;4999028;28;20788;-72
2022/06/16 11:09:47;;;;;;;3.50;0.60;;;26.90;48.30;;;;;;4993152;28;20182;-72
2022/06/16 11:12:20;;;;;;;6.70;0.43;;;27.00;48.60;;;;;;4994796;28;20037;-73
2022/06/16 11:15:02;;;;;;;1.33;0.32;;;27.10;46.20;;;;;;4990322;28;20764;-73
2022/06/16 11:17:36;;;;;;;1.80;0.30;;;27.00;45.30;;;;;;5001166;28;20802;-74
2022/06/16 11:20:35;;;;;;;4.22;0.40;;;27.10;46.60;;;;;;5021986;28;20056;-73
2022/06/16 11:23:29;;;;;;;1.90;0.40;;;27.10;45.00;;;;;;5021376;28;22780;-74
2022/06/16 11:26:24;;;;;;;2.45;0.60;;;26.90;42.90;;;;;;5022687;28;20052;-75
2022/06/16 11:28:55;;;;;;;3.40;0.40;;;27.00;44.00;;;;;;5006966;28;20052;-73
2022/06/16 11:31:44;;;;;;;1.95;0.43;;;27.00;44.50;;;;;;5011645;28;20111;-72
2022/06/16 11:34:19;;;;;;;1.65;0.47;;;27.00;45.60;;;;;;4998756;28;20053;-72
2022/06/16 11:37:21;;;;;;;3.90;0.50;;;27.20;45.70;;;;;;5005720;28;20041;-72
2022/06/16 11:40:10;;;;;;;2.92;0.50;;;27.30;45.70;;;;;;5005075;28;20127;-76
2022/06/16 11:42:58;;;;;;;2.90;0.40;;;27.50;46.30;;;;;;5015894;28;20056;-74
2022/06/16 11:45:50;;;;;;;1.13;0.47;;;27.50;46.80;;;;;;4995289;28;20041;-74
2022/06/16 11:48:26;;;;;;;1.10;0.50;;;27.60;47.20;;;;;;5022952;28;22412;-72
2022/06/16 11:51:08;;;;;;;2.67;0.38;;;27.50;45.10;;;;;;5003007;28;20053;-73
2022/06/16 11:53:41;;;;;;;;;;;27.50;46.30;;;;;;5002802;28;20071;-73
2022/06/16 11:56:26;;;;;;;1.13;0.50;;;27.40;48.00;;;;;;5004807;28;19928;-74
2022/06/16 11:59:02;;;;;;;1.63;0.38;;;27.50;46.10;;;;;;5002426;28;20069;-74
2022/06/16 12:01:35;;;;;;;2.45;0.40;;;27.40;45.70;;;;;;4999667;28;22653;-73
2022/06/16 12:04:25;;;;;;;1.67;0.30;;;27.40;46.00;;;;;;5003355;28;20096;-73
2022/06/16 12:07:05;;;;;;;2.47;0.60;;;27.30;46.40;;;;;;4998558;28;20863;-73
2022/06/16 12:09:33;;;;;;;4.35;0.63;;;27.40;47.00;;;;;;5000430;28;20057;-74
2022/06/16 12:12:08;;;;;;;3.60;0.50;;;27.50;47.20;;;;;;4990834;28;20041;-73
2022/06/16 12:14:41;;;;;;;2.72;0.47;;;27.60;46.40;;;;;;4992094;28;20544;-73
2022/06/16 12:17:23;;;;;;;1.55;0.43;;;27.50;45.90;;;;;;4990056;28;20061;-73
2022/06/16 12:20:09;;;;;;;3.80;0.40;;;27.60;46.40;;;;;;4987353;28;22483;-73
2022/06/16 12:23:04;;;;;;;3.92;0.60;;;27.60;47.20;;;;;;5004672;28;20045;-74
2022/06/16 12:25:45;;;;;;;1.45;0.40;;;27.60;45.10;;;;;;4994098;28;20135;-73
2022/06/16 12:28:28;;;;;;;2.08;0.30;;;27.40;44.20;;;;;;5016713;28;20051;-74
2022/06/16 12:31:06;;;;;;;1.98;0.57;;;27.30;43.20;;;;;;5012045;28;20049;-74
2022/06/16 12:33:45;;;;;;;1.45;0.20;;;27.10;43.30;;;;;;5004507;28;20053;-73
2022/06/16 12:36:19;;;;;;;4.85;0.90;;;27.20;45.50;;;;;;5001208;28;20087;-73
2022/06/16 12:38:53;;;;;;;2.75;0.45;;;27.40;45.20;;;;;;5001533;28;20042;-73
2022/06/16 12:41:34;;;;;;;1.27;0.35;;;27.50;44.40;;;;;;5005205;28;20070;-73
2022/06/16 12:44:12;;;;;;;1.15;0.40;;;27.60;45.30;;;;;;4997221;28;20053;-73
2022/06/16 12:46:51;;;;;;;2.90;0.40;;;27.50;43.50;;;;;;4999540;28;20057;-73
2022/06/16 12:49:27;;;;;;;4.78;0.55;;;27.70;46.20;;;;;;5015068;28;20044;-73
2022/06/16 12:52:09;;;;;;;0.82;0.30;;;27.60;43.00;;;;;;5003587;28;20046;-73
2022/06/16 12:54:45;;;;;;;1.80;0.30;;;27.60;44.80;;;;;;5006690;28;20148;-73
2022/06/16 12:57:20;;;;;;;2.38;0.50;;;27.60;45.80;;;;;;5000062;28;20768;-73
2022/06/16 12:59:53;;;;;;;1.08;0.52;;;27.60;44.70;;;;;;4990082;28;21145;-73
2022/06/16 13:02:28;;;;;;;1.80;0.40;;;27.60;45.80;;;;;;5001449;28;20060;-74
2022/06/16 13:04:57;;;;;;;5.43;0.60;;;27.60;46.00;;;;;;5001398;28;20053;-73
2022/06/16 13:07:29;;;;;;;2.42;0.60;;;27.70;46.20;;;;;;5002203;28;20099;-74
2022/06/16 13:09:57;;;;;;;0.95;0.50;;;27.70;45.70;;;;;;5005623;28;20053;-73
2022/06/16 13:12:30;;;;;;;2.08;0.55;;;27.50;45.30;;;;;;4999738;28;20049;-74
2022/06/16 13:15:07;;;;;;;3.70;0.55;;;27.50;45.20;;;;;;5005832;28;20055;-74
2022/06/16 13:17:47;;;;;;;6.03;0.60;;;27.60;47.10;;;;;;5008259;28;20041;-74
2022/06/16 13:20:17;;;;;;;0.98;0.38;;;27.60;44.60;;;;;;5004268;28;20136;-73
2022/06/16 13:22:58;;;;;;;5.75;0.52;;;27.70;46.20;;;;;;5003104;28;20049;-72
2022/06/16 13:25:44;;;;;;;2.63;0.50;;;27.70;46.00;;;;;;4991274;28;20497;-74
2022/06/16 13:28:24;;;;;;;0.90;0.40;;;27.80;46.50;;;;;;5000568;28;20512;-73
2022/06/16 13:31:10;;;;;;;4.45;0.70;;;27.80;45.70;;;;;;5012677;28;20191;-72
2022/06/16 13:33:52;;;;;;;3.38;0.60;;;27.80;46.10;;;;;;5016459;28;20053;-73
2022/06/16 13:36:30;;;;;;;3.45;0.50;;;27.70;43.80;;;;;;5008182;28;20171;-72
2022/06/16 13:38:57;;;;;;;2.22;0.52;;;27.80;45.00;;;;;;4992639;28;20053;-73
2022/06/16 13:41:32;;;;;;;3.80;0.68;;;27.70;44.50;;;;;;4996658;28;20057;-74
2022/06/16 13:44:05;;;;;;;4.00;0.65;;;27.60;44.70;;;;;;5001976;28;20064;-73
2022/06/16 13:46:56;;;;;;;3.55;0.63;;;27.70;44.30;;;;;;4999598;28;20049;-73
2022/06/16 13:49:27;;;;;;;4.55;0.75;;;27.70;44.10;;;;;;4989860;28;20053;-73